This is the latest recevied weather packets stored in our database for station/object N1TKS. If no packets are shown the sender has not sent any weather packets the latest 10 day(s).
| Time | Temp. | Humidity | Pressure | Rain* | Wind** | Luminosity | Snow |
|---|---|---|---|---|---|---|---|
| 1777534314 | 8.89° C | 89% | 1009.2 hPa | 1.27 mm | - | - | - |
| 1777534013 | 8.89° C | 89% | 1009.2 hPa | 1.52 mm | - | - | - |
| 1777533447 | 8.89° C | 89% | 1009.2 hPa | 1.78 mm | - | - | - |
| 1777533413 | 8.89° C | 89% | 1009.2 hPa | 1.78 mm | - | - | - |
| 1777533115 | 8.89° C | 89% | 1009.3 hPa | 1.78 mm | - | - | - |
| 1777532814 | 8.89° C | 89% | 1009.2 hPa | 1.78 mm | - | - | - |
| 1777532513 | 8.89° C | 89% | 1009.2 hPa | 1.78 mm | - | - | - |
| 1777532246 | 8.89° C | 89% | 1009.2 hPa | 1.78 mm | - | - | - |
| 1777532235 | 8.89° C | 89% | 1009.4 hPa | 2.54 mm | - | - | - |
| 1777532214 | 8.89° C | 89% | 1009.2 hPa | 1.78 mm | - | - | - |
| 1777531613 | 8.89° C | 89% | 1009.3 hPa | 1.78 mm | - | - | - |
| 1777531313 | 8.89° C | 89% | 1009.4 hPa | 2.29 mm | - | - | - |
| 1777531012 | 8.89° C | 89% | 1009.4 hPa | 2.54 mm | - | - | - |
| 1777530713 | 8.89° C | 89% | 1009.2 hPa | 2.29 mm | - | - | - |
| 1777530415 | 8.89° C | 89% | 1009.2 hPa | 2.29 mm | - | - | - |
| 1777529813 | 8.89° C | 89% | 1009.4 hPa | 2.54 mm | - | - | - |
| 1777529513 | 8.89° C | 89% | 1009.5 hPa | 2.79 mm | - | - | - |
| 1777529215 | 8.89° C | 89% | 1009.7 hPa | 3.05 mm | - | - | - |
| 1777528912 | 8.89° C | 89% | 1009.6 hPa | 3.05 mm | - | - | - |
| 1777528616 | 8.89° C | 89% | 1009.6 hPa | 3.05 mm | - | - | - |
| 1777528391 | 8.89° C | 89% | 1010.7 hPa | 1.78 mm | - | - | - |
| 1777528012 | 8.89° C | 89% | 1009 hPa | 2.79 mm | - | - | - |
| 1777527762 | 8.89° C | 89% | 1009.3 hPa | 2.54 mm | - | - | - |
| 1777527714 | 8.89° C | 89% | 1009.3 hPa | 2.54 mm | - | - | - |
| 1777527114 | 8.89° C | 89% | 1010.7 hPa | 1.78 mm | - | - | - |
* Rain latest hour (hover to see other rain measurements)
** Current wind speed in m/s (hover to see current wind gust speed)